sensor_id;sensor_type;location;lat;lon;timestamp;pressure;altitude;pressure_sealevel;temperature;humidity
18500;BME280;9379;52.134;11.576;2023-08-12T00:01:45;101189.56;;;23.62;77.66
18500;BME280;9379;52.134;11.576;2023-08-12T00:04:12;101190.56;;;23.47;77.70
18500;BME280;9379;52.134;11.576;2023-08-12T00:06:40;101179.97;;;23.59;76.95
18500;BME280;9379;52.134;11.576;2023-08-12T00:09:07;101180.41;;;23.63;77.25
18500;BME280;9379;52.134;11.576;2023-08-12T00:11:34;101148.81;;;23.48;77.84
18500;BME280;9379;52.134;11.576;2023-08-12T00:14:03;101185.59;;;23.51;77.86
18500;BME280;9379;52.134;11.576;2023-08-12T00:16:30;101162.16;;;23.37;79.69
18500;BME280;9379;52.134;11.576;2023-08-12T00:18:58;101172.06;;;23.64;77.51
18500;BME280;9379;52.134;11.576;2023-08-12T00:21:25;101174.72;;;23.51;78.20
18500;BME280;9379;52.134;11.576;2023-08-12T00:23:52;101176.63;;;23.70;77.48
18500;BME280;9379;52.134;11.576;2023-08-12T00:26:19;101186.03;;;23.81;76.68
18500;BME280;9379;52.134;11.576;2023-08-12T00:28:48;101170.59;;;23.81;76.74
18500;BME280;9379;52.134;11.576;2023-08-12T00:31:16;101177.91;;;23.81;76.63
18500;BME280;9379;52.134;11.576;2023-08-12T00:33:43;101172.00;;;23.51;78.08
18500;BME280;9379;52.134;11.576;2023-08-12T00:36:10;101169.34;;;23.71;77.64
18500;BME280;9379;52.134;11.576;2023-08-12T00:38:37;101164.31;;;23.61;78.08
18500;BME280;9379;52.134;11.576;2023-08-12T00:41:03;101160.56;;;23.69;77.81
18500;BME280;9379;52.134;11.576;2023-08-12T00:43:31;101167.47;;;23.78;78.19
18500;BME280;9379;52.134;11.576;2023-08-12T00:45:57;101162.47;;;23.75;77.89
18500;BME280;9379;52.134;11.576;2023-08-12T00:48:26;101165.38;;;23.86;77.19
18500;BME280;9379;52.134;11.576;2023-08-12T00:50:53;101158.84;;;23.41;78.78
18500;BME280;9379;52.134;11.576;2023-08-12T00:53:20;101152.94;;;23.24;79.24
18500;BME280;9379;52.134;11.576;2023-08-12T00:55:47;101149.88;;;23.54;77.91
18500;BME280;9379;52.134;11.576;2023-08-12T00:58:15;101149.44;;;23.44;77.98
18500;BME280;9379;52.134;11.576;2023-08-12T01:00:42;101150.94;;;23.53;77.94
18500;BME280;9379;52.134;11.576;2023-08-12T01:03:09;101153.00;;;23.44;78.07
18500;BME280;9379;52.134;11.576;2023-08-12T01:05:38;101150.94;;;23.53;78.16
18500;BME280;9379;52.134;11.576;2023-08-12T01:08:05;101151.91;;;23.19;78.83
18500;BME280;9379;52.134;11.576;2023-08-12T01:10:35;101151.16;;;23.58;76.97
18500;BME280;9379;52.134;11.576;2023-08-12T01:13:13;101148.03;;;23.61;77.30
18500;BME280;9379;52.134;11.576;2023-08-12T01:15:44;101140.03;;;23.33;77.76
18500;BME280;9379;52.134;11.576;2023-08-12T01:18:13;101146.53;;;23.52;77.14
18500;BME280;9379;52.134;11.576;2023-08-12T01:20:42;101146.59;;;23.78;76.70
18500;BME280;9379;52.134;11.576;2023-08-12T01:23:12;101148.06;;;23.74;77.11
18500;BME280;9379;52.134;11.576;2023-08-12T01:25:40;101144.50;;;23.67;77.14
18500;BME280;9379;52.134;11.576;2023-08-12T01:28:06;101130.47;;;23.57;76.92
18500;BME280;9379;52.134;11.576;2023-08-12T01:30:36;101142.75;;;23.46;78.01
18500;BME280;9379;52.134;11.576;2023-08-12T01:33:10;101130.69;;;23.55;76.97
18500;BME280;9379;52.134;11.576;2023-08-12T01:35:44;101128.59;;;23.57;77.10
18500;BME280;9379;52.134;11.576;2023-08-12T01:38:15;101135.19;;;23.09;79.41
18500;BME280;9379;52.134;11.576;2023-08-12T01:40:44;101125.22;;;23.16;78.79
18500;BME280;9379;52.134;11.576;2023-08-12T01:43:12;101119.16;;;23.20;78.88
18500;BME280;9379;52.134;11.576;2023-08-12T01:45:40;101107.44;;;23.13;78.92
18500;BME280;9379;52.134;11.576;2023-08-12T01:48:09;101110.00;;;23.28;78.14
18500;BME280;9379;52.134;11.576;2023-08-12T01:50:36;101099.97;;;23.28;77.72
18500;BME280;9379;52.134;11.576;2023-08-12T01:53:03;101108.72;;;23.17;78.04
18500;BME280;9379;52.134;11.576;2023-08-12T01:55:31;101104.97;;;23.25;78.47
18500;BME280;9379;52.134;11.576;2023-08-12T01:57:58;101113.31;;;23.37;78.25
18500;BME280;9379;52.134;11.576;2023-08-12T02:00:24;101101.84;;;23.35;78.21
18500;BME280;9379;52.134;11.576;2023-08-12T02:02:51;101108.53;;;23.32;78.38
18500;BME280;9379;52.134;11.576;2023-08-12T02:05:18;101113.97;;;23.32;78.06
18500;BME280;9379;52.134;11.576;2023-08-12T02:07:45;101115.97;;;23.04;79.42
18500;BME280;9379;52.134;11.576;2023-08-12T02:10:12;101112.47;;;23.16;78.83
18500;BME280;9379;52.134;11.576;2023-08-12T02:12:41;101096.34;;;22.88;79.50
18500;BME280;9379;52.134;11.576;2023-08-12T02:15:08;101094.25;;;22.84;79.65
18500;BME280;9379;52.134;11.576;2023-08-12T02:17:36;101107.25;;;22.60;80.54
18500;BME280;9379;52.134;11.576;2023-08-12T02:20:03;101085.97;;;22.57;80.65
18500;BME280;9379;52.134;11.576;2023-08-12T02:22:30;101096.69;;;22.72;80.42
18500;BME280;9379;52.134;11.576;2023-08-12T02:27:24;101091.63;;;22.69;80.98
18500;BME280;9379;52.134;11.576;2023-08-12T02:29:52;101085.38;;;22.68;80.97
18500;BME280;9379;52.134;11.576;2023-08-12T02:32:19;101079.09;;;22.55;80.81
18500;BME280;9379;52.134;11.576;2023-08-12T02:34:45;101074.09;;;22.52;81.54
18500;BME280;9379;52.134;11.576;2023-08-12T02:37:12;101064.69;;;22.48;81.48
18500;BME280;9379;52.134;11.576;2023-08-12T02:39:39;101058.69;;;22.59;81.43
18500;BME280;9379;52.134;11.576;2023-08-12T02:42:06;101055.41;;;22.70;81.32
18500;BME280;9379;52.134;11.576;2023-08-12T02:44:33;101042.25;;;22.67;80.56
18500;BME280;9379;52.134;11.576;2023-08-12T02:47:01;101049.97;;;22.70;81.00
18500;BME280;9379;52.134;11.576;2023-08-12T02:49:27;101051.63;;;22.58;81.64
18500;BME280;9379;52.134;11.576;2023-08-12T02:51:54;101043.69;;;22.63;81.19
18500;BME280;9379;52.134;11.576;2023-08-12T02:54:21;101057.88;;;22.65;81.22
18500;BME280;9379;52.134;11.576;2023-08-12T02:56:49;101055.41;;;22.70;81.05
18500;BME280;9379;52.134;11.576;2023-08-12T02:59:16;101046.41;;;22.63;81.14
18500;BME280;9379;52.134;11.576;2023-08-12T03:01:43;101047.50;;;22.82;80.15
18500;BME280;9379;52.134;11.576;2023-08-12T03:04:11;101038.50;;;22.68;79.96
18500;BME280;9379;52.134;11.576;2023-08-12T03:06:38;101042.19;;;22.54;81.24
18500;BME280;9379;52.134;11.576;2023-08-12T03:09:05;101048.50;;;22.67;81.29
18500;BME280;9379;52.134;11.576;2023-08-12T03:11:32;101055.56;;;22.62;81.41
18500;BME280;9379;52.134;11.576;2023-08-12T03:13:58;101047.44;;;22.62;81.17
18500;BME280;9379;52.134;11.576;2023-08-12T03:16:25;101052.44;;;22.65;81.31
18500;BME280;9379;52.134;11.576;2023-08-12T03:18:52;101033.88;;;22.55;81.19
18500;BME280;9379;52.134;11.576;2023-08-12T03:21:20;101033.28;;;22.60;81.72
18500;BME280;9379;52.134;11.576;2023-08-12T03:23:47;101047.28;;;22.70;81.13
18500;BME280;9379;52.134;11.576;2023-08-12T03:26:14;101049.88;;;22.43;81.96
18500;BME280;9379;52.134;11.576;2023-08-12T03:28:41;101039.22;;;22.35;82.08
18500;BME280;9379;52.134;11.576;2023-08-12T03:31:08;101036.53;;;22.42;82.27
18500;BME280;9379;52.134;11.576;2023-08-12T03:33:34;101030.69;;;22.45;82.17
18500;BME280;9379;52.134;11.576;2023-08-12T03:36:01;101038.44;;;22.48;82.27
18500;BME280;9379;52.134;11.576;2023-08-12T03:38:30;101041.59;;;22.58;81.57
18500;BME280;9379;52.134;11.576;2023-08-12T03:40:56;101041.38;;;22.53;81.77
18500;BME280;9379;52.134;11.576;2023-08-12T03:43:23;101033.41;;;22.38;82.69
18500;BME280;9379;52.134;11.576;2023-08-12T03:45:50;101019.59;;;22.27;82.97
18500;BME280;9379;52.134;11.576;2023-08-12T03:48:19;101038.34;;;22.28;82.89
18500;BME280;9379;52.134;11.576;2023-08-12T03:50:46;101033.50;;;22.17;84.07
18500;BME280;9379;52.134;11.576;2023-08-12T03:53:13;101022.31;;;22.27;83.58
18500;BME280;9379;52.134;11.576;2023-08-12T03:55:41;101018.00;;;22.46;82.68
18500;BME280;9379;52.134;11.576;2023-08-12T03:58:08;101021.31;;;22.34;83.08
18500;BME280;9379;52.134;11.576;2023-08-12T04:00:35;101019.63;;;22.33;83.36
18500;BME280;9379;52.134;11.576;2023-08-12T04:03:01;101018.22;;;22.51;82.54
18500;BME280;9379;52.134;11.576;2023-08-12T04:05:28;101019.28;;;22.56;82.52
18500;BME280;9379;52.134;11.576;2023-08-12T04:07:55;101022.31;;;22.33;83.77
18500;BME280;9379;52.134;11.576;2023-08-12T04:10:22;101019.03;;;22.38;83.67
18500;BME280;9379;52.134;11.576;2023-08-12T04:12:50;101002.00;;;22.09;84.13
18500;BME280;9379;52.134;11.576;2023-08-12T04:15:17;101018.13;;;22.24;84.09
18500;BME280;9379;52.134;11.576;2023-08-12T04:17:43;101022.25;;;22.20;84.13
18500;BME280;9379;52.134;11.576;2023-08-12T04:20:10;101010.84;;;22.31;83.80
18500;BME280;9379;52.134;11.576;2023-08-12T04:22:37;101010.72;;;22.46;83.60
18500;BME280;9379;52.134;11.576;2023-08-12T04:25:05;101003.72;;;22.71;82.04
18500;BME280;9379;52.134;11.576;2023-08-12T04:27:32;101001.41;;;22.75;82.06
18500;BME280;9379;52.134;11.576;2023-08-12T04:30:00;100997.22;;;22.66;82.63
18500;BME280;9379;52.134;11.576;2023-08-12T04:32:27;100984.28;;;22.48;82.62
18500;BME280;9379;52.134;11.576;2023-08-12T04:34:54;100998.88;;;22.67;82.49
18500;BME280;9379;52.134;11.576;2023-08-12T04:37:20;100988.63;;;22.56;83.16
18500;BME280;9379;52.134;11.576;2023-08-12T04:39:49;100989.88;;;22.47;83.04
18500;BME280;9379;52.134;11.576;2023-08-12T04:42:16;100991.91;;;22.25;84.00
18500;BME280;9379;52.134;11.576;2023-08-12T04:44:42;100995.31;;;22.53;83.99
18500;BME280;9379;52.134;11.576;2023-08-12T04:47:10;100997.13;;;22.33;83.90
18500;BME280;9379;52.134;11.576;2023-08-12T04:49:37;100996.84;;;22.21;84.30
18500;BME280;9379;52.134;11.576;2023-08-12T04:52:04;100991.44;;;22.15;85.21
18500;BME280;9379;52.134;11.576;2023-08-12T04:54:32;100992.56;;;22.40;84.89
18500;BME280;9379;52.134;11.576;2023-08-12T04:56:58;100996.63;;;22.16;84.71
18500;BME280;9379;52.134;11.576;2023-08-12T04:59:25;100991.84;;;22.18;84.93
18500;BME280;9379;52.134;11.576;2023-08-12T05:01:52;100988.69;;;22.08;84.31
18500;BME280;9379;52.134;11.576;2023-08-12T05:04:20;101002.47;;;22.13;85.00
18500;BME280;9379;52.134;11.576;2023-08-12T05:06:47;100990.75;;;22.06;85.37
18500;BME280;9379;52.134;11.576;2023-08-12T05:09:14;101002.47;;;22.20;84.33
18500;BME280;9379;52.134;11.576;2023-08-12T05:11:40;100997.53;;;22.23;84.66
18500;BME280;9379;52.134;11.576;2023-08-12T05:14:07;100998.88;;;22.06;84.73
18500;BME280;9379;52.134;11.576;2023-08-12T05:16:34;100999.97;;;22.18;85.15
18500;BME280;9379;52.134;11.576;2023-08-12T05:19:01;101002.56;;;22.39;83.98
18500;BME280;9379;52.134;11.576;2023-08-12T05:21:29;101004.66;;;22.44;84.62
18500;BME280;9379;52.134;11.576;2023-08-12T05:23:56;100989.59;;;22.28;84.24
18500;BME280;9379;52.134;11.576;2023-08-12T05:26:23;100991.81;;;22.59;83.97
18500;BME280;9379;52.134;11.576;2023-08-12T05:28:49;100996.31;;;22.39;84.57
18500;BME280;9379;52.134;11.576;2023-08-12T05:31:16;101011.13;;;22.43;84.52
18500;BME280;9379;52.134;11.576;2023-08-12T05:33:43;100989.09;;;22.59;84.25
18500;BME280;9379;52.134;11.576;2023-08-12T05:36:10;100997.53;;;22.97;83.76
18500;BME280;9379;52.134;11.576;2023-08-12T05:38:39;100991.44;;;22.82;84.11
18500;BME280;9379;52.134;11.576;2023-08-12T05:41:06;101006.09;;;23.08;83.40
18500;BME280;9379;52.134;11.576;2023-08-12T05:43:33;101008.50;;;22.76;83.86
18500;BME280;9379;52.134;11.576;2023-08-12T05:46:00;100996.50;;;23.05;82.93
18500;BME280;9379;52.134;11.576;2023-08-12T05:48:28;100995.03;;;23.09;82.22
18500;BME280;9379;52.134;11.576;2023-08-12T05:50:55;100984.81;;;23.11;82.68
18500;BME280;9379;52.134;11.576;2023-08-12T05:53:21;101006.91;;;22.95;83.17
18500;BME280;9379;52.134;11.576;2023-08-12T05:55:50;100994.97;;;22.83;83.76
18500;BME280;9379;52.134;11.576;2023-08-12T05:58:16;100985.13;;;22.68;84.46
18500;BME280;9379;52.134;11.576;2023-08-12T06:00:43;101000.88;;;23.06;83.66
18500;BME280;9379;52.134;11.576;2023-08-12T06:03:11;101004.22;;;23.21;83.88
18500;BME280;9379;52.134;11.576;2023-08-12T06:05:39;101005.66;;;22.97;83.08
18500;BME280;9379;52.134;11.576;2023-08-12T06:08:05;101009.00;;;22.93;84.86
18500;BME280;9379;52.134;11.576;2023-08-12T06:10:33;100996.69;;;23.23;84.05
18500;BME280;9379;52.134;11.576;2023-08-12T06:13:01;100998.16;;;23.52;82.65
18500;BME280;9379;52.134;11.576;2023-08-12T06:15:28;100995.22;;;23.47;82.74
18500;BME280;9379;52.134;11.576;2023-08-12T06:17:55;100994.53;;;22.79;84.35
18500;BME280;9379;52.134;11.576;2023-08-12T06:20:22;100999.19;;;22.98;85.70
18500;BME280;9379;52.134;11.576;2023-08-12T06:22:49;101004.06;;;22.49;88.06
18500;BME280;9379;52.134;11.576;2023-08-12T06:25:16;101017.72;;;22.27;88.52
18500;BME280;9379;52.134;11.576;2023-08-12T06:27:43;101014.69;;;22.57;89.77
18500;BME280;9379;52.134;11.576;2023-08-12T06:30:12;101010.66;;;23.00;89.37
18500;BME280;9379;52.134;11.576;2023-08-12T06:32:40;101003.38;;;23.08;88.87
18500;BME280;9379;52.134;11.576;2023-08-12T06:35:07;101019.22;;;23.24;88.63
18500;BME280;9379;52.134;11.576;2023-08-12T06:37:34;101004.63;;;23.18;89.78
18500;BME280;9379;52.134;11.576;2023-08-12T06:40:01;101021.09;;;23.23;91.37
18500;BME280;9379;52.134;11.576;2023-08-12T06:42:28;101014.63;;;23.57;87.87
18500;BME280;9379;52.134;11.576;2023-08-12T06:44:57;101015.88;;;23.02;94.36
18500;BME280;9379;52.134;11.576;2023-08-12T06:47:25;101000.34;;;22.63;94.39
18500;BME280;9379;52.134;11.576;2023-08-12T06:49:55;100998.84;;;22.47;95.89
18500;BME280;9379;52.134;11.576;2023-08-12T06:52:22;100993.75;;;22.85;94.49
18500;BME280;9379;52.134;11.576;2023-08-12T06:54:49;100975.63;;;23.32;88.92
18500;BME280;9379;52.134;11.576;2023-08-12T06:57:15;100968.53;;;23.64;86.59
18500;BME280;9379;52.134;11.576;2023-08-12T06:59:42;100951.81;;;23.67;86.70
18500;BME280;9379;52.134;11.576;2023-08-12T07:02:09;100937.84;;;23.64;86.35
18500;BME280;9379;52.134;11.576;2023-08-12T07:04:37;100930.53;;;23.64;86.62
18500;BME280;9379;52.134;11.576;2023-08-12T07:07:04;100949.34;;;22.93;93.27
18500;BME280;9379;52.134;11.576;2023-08-12T07:09:30;100960.41;;;23.05;93.48
18500;BME280;9379;52.134;11.576;2023-08-12T07:11:57;100975.63;;;22.99;93.55
18500;BME280;9379;52.134;11.576;2023-08-12T07:14:24;100983.78;;;23.06;94.23
18500;BME280;9379;52.134;11.576;2023-08-12T07:16:53;100993.13;;;23.03;95.33
18500;BME280;9379;52.134;11.576;2023-08-12T07:19:20;100992.94;;;23.11;93.50
18500;BME280;9379;52.134;11.576;2023-08-12T07:21:48;100983.78;;;23.19;93.60
18500;BME280;9379;52.134;11.576;2023-08-12T07:24:15;100990.63;;;23.48;91.47
18500;BME280;9379;52.134;11.576;2023-08-12T07:26:42;100992.09;;;23.70;90.23
18500;BME280;9379;52.134;11.576;2023-08-12T07:32:31;101001.06;;;23.44;91.63
18500;BME280;9379;52.134;11.576;2023-08-12T07:34:58;100987.72;;;23.63;91.68
18500;BME280;9379;52.134;11.576;2023-08-12T07:37:26;100984.78;;;23.57;92.16
18500;BME280;9379;52.134;11.576;2023-08-12T07:39:53;100981.78;;;23.92;90.84
18500;BME280;9379;52.134;11.576;2023-08-12T07:42:20;100980.59;;;23.75;88.96
18500;BME280;9379;52.134;11.576;2023-08-12T07:44:47;100964.63;;;24.05;88.96
18500;BME280;9379;52.134;11.576;2023-08-12T07:47:14;100968.31;;;24.17;89.04
18500;BME280;9379;52.134;11.576;2023-08-12T07:49:41;100946.31;;;24.38;87.65
18500;BME280;9379;52.134;11.576;2023-08-12T07:52:08;100963.44;;;24.39;85.66
18500;BME280;9379;52.134;11.576;2023-08-12T07:54:36;100947.41;;;24.31;85.75
18500;BME280;9379;52.134;11.576;2023-08-12T07:57:03;100966.00;;;24.65;84.68
18500;BME280;9379;52.134;11.576;2023-08-12T07:59:30;100972.00;;;24.74;83.88
18500;BME280;9379;52.134;11.576;2023-08-12T08:01:56;100965.34;;;24.38;87.19
18500;BME280;9379;52.134;11.576;2023-08-12T08:04:23;100961.28;;;24.09;87.65
18500;BME280;9379;52.134;11.576;2023-08-12T08:06:50;100987.09;;;23.61;91.94
18500;BME280;9379;52.134;11.576;2023-08-12T08:09:17;101001.31;;;23.63;91.48
18500;BME280;9379;52.134;11.576;2023-08-12T08:11:45;100986.66;;;23.37;92.43
18500;BME280;9379;52.134;11.576;2023-08-12T08:14:12;101001.06;;;23.51;92.02
18500;BME280;9379;52.134;11.576;2023-08-12T08:16:39;100990.00;;;23.52;91.38
18500;BME280;9379;52.134;11.576;2023-08-12T08:19:07;100975.63;;;23.58;91.02
18500;BME280;9379;52.134;11.576;2023-08-12T08:21:35;100994.19;;;23.62;92.11
18500;BME280;9379;52.134;11.576;2023-08-12T08:24:02;100997.91;;;23.87;91.82
18500;BME280;9379;52.134;11.576;2023-08-12T08:26:28;100998.38;;;23.64;91.49
18500;BME280;9379;52.134;11.576;2023-08-12T08:28:57;101003.91;;;23.96;91.70
18500;BME280;9379;52.134;11.576;2023-08-12T08:31:23;100989.16;;;23.78;91.66
18500;BME280;9379;52.134;11.576;2023-08-12T08:33:50;100987.88;;;24.46;88.67
18500;BME280;9379;52.134;11.576;2023-08-12T08:36:17;100976.19;;;24.77;87.74
18500;BME280;9379;52.134;11.576;2023-08-12T08:38:44;100981.78;;;24.50;88.26
18500;BME280;9379;52.134;11.576;2023-08-12T08:41:10;100976.56;;;24.49;89.18
18500;BME280;9379;52.134;11.576;2023-08-12T08:43:39;100978.69;;;24.78;86.82
18500;BME280;9379;52.134;11.576;2023-08-12T08:46:10;100986.28;;;24.31;89.66
18500;BME280;9379;52.134;11.576;2023-08-12T08:48:41;100997.16;;;24.18;91.64
18500;BME280;9379;52.134;11.576;2023-08-12T08:51:08;100999.97;;;23.92;92.81
18500;BME280;9379;52.134;11.576;2023-08-12T08:53:37;101006.78;;;24.21;90.75
18500;BME280;9379;52.134;11.576;2023-08-12T08:56:04;101003.78;;;24.29;91.15
18500;BME280;9379;52.134;11.576;2023-08-12T08:58:31;101006.91;;;24.46;91.27
18500;BME280;9379;52.134;11.576;2023-08-12T09:00:59;100999.16;;;24.42;91.04
18500;BME280;9379;52.134;11.576;2023-08-12T09:03:27;101004.44;;;24.31;91.88
18500;BME280;9379;52.134;11.576;2023-08-12T09:05:55;101004.59;;;24.42;91.61
18500;BME280;9379;52.134;11.576;2023-08-12T09:08:22;101011.09;;;24.41;91.66
18500;BME280;9379;52.134;11.576;2023-08-12T09:10:50;101010.28;;;24.28;91.96
18500;BME280;9379;52.134;11.576;2023-08-12T09:13:17;100997.22;;;24.88;89.55
18500;BME280;9379;52.134;11.576;2023-08-12T09:15:44;100984.28;;;24.90;91.11
18500;BME280;9379;52.134;11.576;2023-08-12T09:18:11;100970.88;;;24.88;92.46
18500;BME280;9379;52.134;11.576;2023-08-12T09:20:39;100979.50;;;25.10;90.75
18500;BME280;9379;52.134;11.576;2023-08-12T09:23:06;100972.41;;;25.09;90.88
18500;BME280;9379;52.134;11.576;2023-08-12T09:25:34;100966.81;;;25.04;91.46
18500;BME280;9379;52.134;11.576;2023-08-12T09:28:01;100976.88;;;25.04;92.06
18500;BME280;9379;52.134;11.576;2023-08-12T09:30:29;101001.94;;;24.36;92.67
18500;BME280;9379;52.134;11.576;2023-08-12T09:32:58;101010.28;;;24.28;94.12
18500;BME280;9379;52.134;11.576;2023-08-12T09:35:32;101000.75;;;24.05;96.28
18500;BME280;9379;52.134;11.576;2023-08-12T09:38:01;101005.88;;;24.40;96.64
18500;BME280;9379;52.134;11.576;2023-08-12T09:40:31;101012.00;;;24.22;97.15
18500;BME280;9379;52.134;11.576;2023-08-12T09:42:59;101007.56;;;24.28;98.47
18500;BME280;9379;52.134;11.576;2023-08-12T09:45:26;101009.34;;;24.54;97.16
18500;BME280;9379;52.134;11.576;2023-08-12T09:47:53;101007.28;;;24.49;97.98
18500;BME280;9379;52.134;11.576;2023-08-12T09:50:21;101012.66;;;24.11;99.97
18500;BME280;9379;52.134;11.576;2023-08-12T09:52:49;101011.06;;;24.48;98.42
18500;BME280;9379;52.134;11.576;2023-08-12T09:55:19;101012.78;;;24.29;100.00
18500;BME280;9379;52.134;11.576;2023-08-12T09:57:48;100996.28;;;24.37;100.00
18500;BME280;9379;52.134;11.576;2023-08-12T10:00:17;100983.44;;;24.51;98.73
18500;BME280;9379;52.134;11.576;2023-08-12T10:02:45;100979.44;;;24.60;99.26
18500;BME280;9379;52.134;11.576;2023-08-12T10:05:19;100951.09;;;24.74;96.55
18500;BME280;9379;52.134;11.576;2023-08-12T10:07:48;100961.59;;;24.26;99.72
18500;BME280;9379;52.134;11.576;2023-08-12T10:10:15;100969.31;;;24.36;100.00
18500;BME280;9379;52.134;11.576;2023-08-12T10:12:44;100967.41;;;24.43;100.00
18500;BME280;9379;52.134;11.576;2023-08-12T10:15:11;100964.03;;;24.48;100.00
18500;BME280;9379;52.134;11.576;2023-08-12T10:17:38;100946.66;;;24.55;100.00
18500;BME280;9379;52.134;11.576;2023-08-12T10:20:06;100962.88;;;24.68;100.00
18500;BME280;9379;52.134;11.576;2023-08-12T10:22:39;100930.97;;;24.82;100.00
18500;BME280;9379;52.134;11.576;2023-08-12T10:25:07;100935.38;;;25.08;98.87
18500;BME280;9379;52.134;11.576;2023-08-12T10:27:36;100930.28;;;25.18;97.29
18500;BME280;9379;52.134;11.576;2023-08-12T10:30:06;100925.56;;;25.69;97.96
18500;BME280;9379;52.134;11.576;2023-08-12T10:32:34;100930.69;;;26.13;91.42
18500;BME280;9379;52.134;11.576;2023-08-12T10:35:01;100926.00;;;26.51;90.97
18500;BME280;9379;52.134;11.576;2023-08-12T10:37:32;100916.38;;;26.78;90.96
18500;BME280;9379;52.134;11.576;2023-08-12T10:40:02;100911.56;;;26.50;87.69
18500;BME280;9379;52.134;11.576;2023-08-12T10:42:42;100924.75;;;26.05;89.70
18500;BME280;9379;52.134;11.576;2023-08-12T10:45:12;100897.06;;;25.89;90.73
18500;BME280;9379;52.134;11.576;2023-08-12T10:47:40;100903.75;;;25.94;91.21
18500;BME280;9379;52.134;11.576;2023-08-12T10:50:16;100903.88;;;25.99;89.55
18500;BME280;9379;52.134;11.576;2023-08-12T10:52:44;100907.38;;;25.87;95.61
18500;BME280;9379;52.134;11.576;2023-08-12T10:55:19;100902.28;;;26.93;90.08
18500;BME280;9379;52.134;11.576;2023-08-12T10:57:48;100899.25;;;27.13;92.45
18500;BME280;9379;52.134;11.576;2023-08-12T11:00:17;100897.41;;;26.11;92.69
18500;BME280;9379;52.134;11.576;2023-08-12T11:02:49;100897.34;;;26.48;88.87
18500;BME280;9379;52.134;11.576;2023-08-12T11:05:18;100882.41;;;26.62;87.89
18500;BME280;9379;52.134;11.576;2023-08-12T11:07:46;100883.03;;;26.53;88.12
18500;BME280;9379;52.134;11.576;2023-08-12T11:10:16;100883.72;;;26.60;88.34
18500;BME280;9379;52.134;11.576;2023-08-12T11:12:48;100886.25;;;27.55;85.34
18500;BME280;9379;52.134;11.576;2023-08-12T11:15:17;100886.19;;;27.90;83.60
18500;BME280;9379;52.134;11.576;2023-08-12T11:17:46;100885.19;;;28.36;82.24
18500;BME280;9379;52.134;11.576;2023-08-12T11:20:13;100879.13;;;28.34;84.09
18500;BME280;9379;52.134;11.576;2023-08-12T11:22:42;100882.31;;;28.76;81.64
18500;BME280;9379;52.134;11.576;2023-08-12T11:25:10;100883.63;;;28.40;82.11
18500;BME280;9379;52.134;11.576;2023-08-12T11:27:39;100877.84;;;28.54;81.89
18500;BME280;9379;52.134;11.576;2023-08-12T11:30:07;100865.66;;;28.78;79.28
18500;BME280;9379;52.134;11.576;2023-08-12T11:32:37;100851.72;;;29.13;82.22
18500;BME280;9379;52.134;11.576;2023-08-12T11:35:05;100853.13;;;29.54;81.07
18500;BME280;9379;52.134;11.576;2023-08-12T11:37:33;100847.91;;;28.81;79.00
18500;BME280;9379;52.134;11.576;2023-08-12T11:40:01;100851.28;;;29.21;80.16
18500;BME280;9379;52.134;11.576;2023-08-12T11:42:29;100847.75;;;29.04;78.31
18500;BME280;9379;52.134;11.576;2023-08-12T11:44:56;100839.63;;;28.92;78.49
18500;BME280;9379;52.134;11.576;2023-08-12T11:47:23;100828.75;;;29.36;77.66
18500;BME280;9379;52.134;11.576;2023-08-12T11:49:52;100836.88;;;29.09;75.99
18500;BME280;9379;52.134;11.576;2023-08-12T11:52:19;100829.34;;;29.60;79.28
18500;BME280;9379;52.134;11.576;2023-08-12T11:54:46;100820.09;;;29.22;78.52
18500;BME280;9379;52.134;11.576;2023-08-12T11:57:14;100815.38;;;30.37;73.80
18500;BME280;9379;52.134;11.576;2023-08-12T12:03:03;100809.78;;;29.08;75.56
18500;BME280;9379;52.134;11.576;2023-08-12T12:05:32;100809.03;;;29.78;76.01
18500;BME280;9379;52.134;11.576;2023-08-12T12:08:00;100812.63;;;28.96;75.99
18500;BME280;9379;52.134;11.576;2023-08-12T12:10:28;100798.53;;;28.54;75.95
18500;BME280;9379;52.134;11.576;2023-08-12T12:12:56;100808.31;;;28.66;77.89
18500;BME280;9379;52.134;11.576;2023-08-12T12:15:23;100803.16;;;28.70;77.34
18500;BME280;9379;52.134;11.576;2023-08-12T12:17:50;100805.53;;;28.16;76.20
18500;BME280;9379;52.134;11.576;2023-08-12T12:20:18;100813.09;;;27.80;78.83
18500;BME280;9379;52.134;11.576;2023-08-12T12:22:47;100808.81;;;28.01;77.85
18500;BME280;9379;52.134;11.576;2023-08-12T12:25:15;100816.09;;;27.96;78.18
18500;BME280;9379;52.134;11.576;2023-08-12T12:27:45;100814.97;;;27.80;78.37
18500;BME280;9379;52.134;11.576;2023-08-12T12:30:14;100800.63;;;29.19;77.28
18500;BME280;9379;52.134;11.576;2023-08-12T12:32:41;100800.06;;;29.00;74.83
18500;BME280;9379;52.134;11.576;2023-08-12T12:35:09;100814.69;;;28.55;77.75
18500;BME280;9379;52.134;11.576;2023-08-12T12:37:37;100812.28;;;28.42;78.00
18500;BME280;9379;52.134;11.576;2023-08-12T12:40:06;100806.06;;;28.01;76.58
18500;BME280;9379;52.134;11.576;2023-08-12T12:42:33;100803.34;;;28.63;77.24
18500;BME280;9379;52.134;11.576;2023-08-12T12:45:00;100805.81;;;28.65;75.93
18500;BME280;9379;52.134;11.576;2023-08-12T12:47:27;100781.03;;;30.03;73.50
18500;BME280;9379;52.134;11.576;2023-08-12T12:49:53;100773.53;;;30.20;72.45
18500;BME280;9379;52.134;11.576;2023-08-12T12:52:20;100763.72;;;30.24;72.95
18500;BME280;9379;52.134;11.576;2023-08-12T12:54:47;100777.88;;;29.40;75.16
18500;BME280;9379;52.134;11.576;2023-08-12T12:57:17;100769.41;;;28.81;75.18
18500;BME280;9379;52.134;11.576;2023-08-12T12:59:44;100771.66;;;29.67;75.16
18500;BME280;9379;52.134;11.576;2023-08-12T13:02:10;100756.84;;;29.95;73.37